Latest Weather Observations for Holsworthy (Defence)

IDN60801

Issued at 8:32 pm EDT Thursday 21 February 2019 (issued every 10 minutes, with the page automatically refreshed every 10 minutes)

About weather observations | Map of weather stations | Latest weather observations for NSW | Other Formats
Station Details ID: 068263 Name: HOLSWORTHY (DEFENCE) Lat: -34.08 Lon: 150.90 Height: 165.0 m
Data from the previous 72 hours. | See also: Recent months at Holsworthy (Defence)
Date/Time
EDT
Temp
°C
App
Temp
°C
Dew
Point
°C
Rel
Hum
%
Delta-T
°C
Wind Press
QNH
hPa
Press
MSL
hPa
Rain since
9am
mm
Dir  Spd
km/h
Gust
km/h
Spd
kts
Gust
kts
21/08:30pm 19.3 20.0 16.2 82 1.9 S 7 13 4 7 - - 0.0
21/08:00pm 19.4 19.7 16.1 81 2.0 S 9 17 5 9 - - 0.0
21/07:30pm 19.8 19.7 16.1 79 2.2 S 11 22 6 12 - - 0.0
21/07:00pm 20.0 19.6 16.2 79 2.3 SSE 13 22 7 12 - - 0.0
21/06:30pm 20.0 19.7 16.4 80 2.2 SSE 13 22 7 12 - - 0.0
21/06:00pm 19.8 19.5 16.4 81 2.1 SSE 13 24 7 13 - - 0.0
21/05:30pm 20.1 19.4 16.3 79 2.3 SSE 15 30 8 16 - - 0.0
21/05:00pm 21.3 21.1 16.7 75 2.8 SSE 13 22 7 12 - - 0.0
21/04:30pm 22.4 22.1 16.4 69 3.7 SSE 13 28 7 15 - - 0.0
21/04:00pm 23.1 22.7 17.1 69 3.7 SSE 15 24 8 13 - - 0.0
21/03:30pm 22.5 22.0 16.8 70 3.5 SE 15 26 8 14 - - 0.0
21/03:00pm 22.2 21.5 16.5 70 3.5 SSE 15 24 8 13 - - 0.0
21/02:30pm 22.7 21.7 16.5 68 3.8 SE 17 26 9 14 - - 0.0
21/02:00pm 23.5 23.7 16.8 66 4.1 ESE 11 20 6 11 - - 0.0
21/01:30pm 23.6 23.9 17.1 67 4.0 SE 11 20 6 11 - - 0.0
21/01:00pm 23.1 23.8 17.1 69 3.7 SSE 9 20 5 11 - - 0.0
21/12:30pm 22.5 22.8 17.0 71 3.4 SE 11 19 6 10 - - 0.0
21/12:00pm 22.7 23.3 16.9 70 3.6 SE 9 20 5 11 - - 0.0
21/11:30am 22.1 22.3 16.8 72 3.3 SSE 11 19 6 10 - - 0.0
21/11:00am 22.1 22.4 17.0 73 3.1 SSE 11 20 6 11 - - 0.0
21/10:30am 22.1 22.4 17.0 73 3.1 SSE 11 17 6 9 - - 0.0
21/10:00am 22.0 22.0 17.2 74 3.0 SSE 13 24 7 13 - - 0.0
21/09:30am 21.4 22.2 17.4 78 2.5 SSE 9 17 5 9 - - 0.0
21/09:00am 20.9 21.7 17.3 80 2.2 SSE 9 15 5 8 - - 0.6
21/08:30am 20.2 21.0 17.2 83 1.8 S 9 19 5 10 - - 0.6
21/08:00am 19.8 21.0 17.4 86 1.5 S 7 11 4 6 - - 0.6
21/07:30am 19.2 20.3 17.2 88 1.2 SSE 7 13 4 7 - - 0.6
21/07:00am 19.0 20.3 17.1 89 1.2 S 6 9 3 5 - - 0.6
21/06:30am 18.9 20.0 17.2 90 1.0 S 7 15 4 8 - - 0.6
21/06:00am 18.8 20.2 17.3 91 0.9 SSW 6 13 3 7 - - 0.6
21/05:30am 18.6 20.0 17.4 93 0.7 SSW 6 7 3 4 - - 0.6
21/05:00am 18.6 20.4 17.4 93 0.7 SSE 4 7 2 4 - - 0.6
21/04:30am 18.9 20.2 17.6 92 0.8 SSE 7 15 4 8 - - 0.6
21/04:00am 19.2 20.6 17.9 92 0.8 SSE 7 13 4 7 - - 0.6
21/03:30am 19.2 20.3 18.0 93 0.7 SSE 9 15 5 8 - - 0.6
21/03:00am 19.7 20.7 17.8 89 1.2 SSE 9 17 5 9 - - 0.6
21/02:30am 19.8 21.2 17.8 88 1.2 SSE 7 15 4 8 - - 0.6
21/02:00am 19.7 21.1 17.7 88 1.2 SSE 7 11 4 6 - - 0.6
21/01:30am 19.6 21.0 17.7 89 1.2 S 7 13 4 7 - - 0.6
21/01:00am 19.9 21.3 17.9 88 1.2 S 7 11 4 6 - - 0.6
21/12:30am 19.9 21.4 18.0 89 1.2 SSE 7 13 4 7 - - 0.6
21/12:00am 20.1 21.3 18.2 89 1.2 SSE 9 19 5 10 - - 0.6
 
Date/Time
EDT
Temp
°C
App
Temp
°C
Dew
Point
°C
Rel
Hum
%
Delta-T
°C
Wind Press
QNH
hPa
Press
MSL
hPa
Rain since
9am
mm
Dir  Spd
km/h
Gust
km/h
Spd
kts
Gust
kts
20/11:30pm 20.2 21.4 18.3 89 1.2 SSE 9 15 5 8 - - 0.6
20/11:00pm 20.1 21.3 18.2 89 1.2 SSE 9 15 5 8 - - 0.6
20/10:30pm 20.1 21.9 18.2 89 1.2 SE 6 9 3 5 - - 0.6
20/10:00pm 20.2 21.4 18.3 89 1.2 SSE 9 15 5 8 - - 0.6
20/09:30pm 20.3 21.9 18.2 88 1.3 SSE 7 17 4 9 - - 0.6
20/09:00pm 20.2 21.9 18.1 88 1.3 SE 6 11 3 6 - - 0.6
20/08:30pm 20.1 21.6 18.1 88 1.2 SE 7 15 4 8 - - 0.6
20/08:00pm 20.1 21.2 18.1 88 1.2 SSE 9 17 5 9 - - 0.6
20/07:30pm 20.1 21.6 18.1 88 1.2 SSE 7 17 4 9 - - 0.6
20/07:00pm 20.2 21.3 18.0 87 1.4 SSE 9 22 5 12 - - 0.6
20/06:30pm 20.4 21.2 18.2 87 1.4 SSE 11 20 6 11 - - 0.6
20/06:00pm 20.6 20.9 18.0 85 1.6 SSE 13 24 7 13 - - 0.6
20/05:30pm 21.1 21.4 17.9 82 2.0 SE 13 20 7 11 - - 0.6
20/05:00pm 21.6 21.9 17.8 79 2.4 SE 13 24 7 13 - - 0.6
20/04:30pm 21.8 22.8 17.8 78 2.5 S 9 19 5 10 - - 0.6
20/04:00pm 21.9 22.5 17.7 77 2.6 S 11 20 6 11 - - 0.6
20/03:30pm 22.5 23.1 17.8 75 2.9 S 11 19 6 10 - - 0.6
20/03:00pm 22.5 22.8 17.8 75 2.9 SSE 13 22 7 12 - - 0.6
20/02:30pm 22.5 23.6 18.1 76 2.8 SSE 9 19 5 10 - - 0.6
20/02:00pm 21.8 22.6 18.2 80 2.3 S 11 19 6 10 - - 0.6
20/01:30pm 20.3 21.7 17.7 85 1.6 SSE 7 15 4 8 - - 0.6
20/01:00pm 20.1 20.8 17.9 87 1.4 SSE 11 20 6 11 - - 0.6
20/12:30pm 20.2 21.1 17.6 85 1.6 S 9 17 5 9 - - 0.6
20/12:00pm 20.4 21.9 18.0 86 1.5 SSE 7 13 4 7 - - 0.6
20/11:30am 19.9 20.9 17.7 87 1.4 SSE 9 17 5 9 - - 0.6
20/11:00am 19.7 21.3 18.2 91 0.9 S 7 13 4 7 - - 0.6
20/10:30am 18.9 20.4 17.6 92 0.8 S 6 13 3 7 - - 0.6
20/10:00am 18.8 20.8 17.8 94 0.6 S 4 7 2 4 - - 0.4
20/09:30am 18.7 20.5 17.5 93 0.7 SW 4 6 2 3 - - 0.4
20/09:00am 18.6 20.0 17.3 92 0.8 S 6 11 3 6 - - 0.2
20/08:30am 19.0 19.7 16.0 83 1.8 S 7 13 4 7 - - 0.0
20/08:00am 19.2 19.5 16.1 82 1.9 S 9 15 5 8 - - 0.0
20/07:30am 18.8 19.4 15.9 83 1.7 SSE 7 11 4 6 - - 0.0
20/07:00am 18.7 19.3 15.9 84 1.7 S 7 11 4 6 - - 0.0
20/06:30am 18.7 19.3 15.8 83 1.7 S 7 13 4 7 - - 0.0
20/06:00am 18.6 19.2 15.8 84 1.7 S 7 15 4 8 - - 0.0
20/05:30am 18.9 19.0 15.6 81 2.0 S 9 17 5 9 - - 0.0
20/05:00am 18.9 19.6 15.6 81 2.0 S 6 13 3 7 - - 0.0
20/04:30am 19.0 19.7 15.7 81 2.0 SSW 6 11 3 6 - - 0.0
20/04:00am 18.9 19.4 15.6 81 2.0 S 7 15 4 8 - - 0.0
20/03:30am 18.9 19.4 15.6 81 2.0 S 7 13 4 7 - - 0.0
20/03:00am 18.9 19.0 15.6 81 2.0 S 9 17 5 9 - - 0.0
20/02:30am 19.0 19.6 15.7 81 2.0 S 7 15 4 8 - - 0.0
20/02:00am 19.0 19.3 15.9 82 1.9 S 9 17 5 9 - - 0.0
20/01:30am 19.2 19.1 15.9 81 2.0 S 11 20 6 11 - - 0.0
20/01:00am 19.3 19.6 16.0 81 2.0 S 9 17 5 9 - - 0.0
20/12:30am 19.2 19.9 16.1 82 1.9 S 7 15 4 8 - - 0.0
20/12:00am 19.1 19.4 16.0 82 1.9 S 9 17 5 9 - - 0.0
 
Date/Time
EDT
Temp
°C
App
Temp
°C
Dew
Point
°C
Rel
Hum
%
Delta-T
°C
Wind Press
QNH
hPa
Press
MSL
hPa
Rain since
9am
mm
Dir  Spd
km/h
Gust
km/h
Spd
kts
Gust
kts
19/11:30pm 19.1 19.4 16.0 82 1.9 S 9 19 5 10 - - 0.0
19/11:00pm 19.2 19.1 16.1 82 1.9 S 11 19 6 10 - - 0.0
19/10:30pm 19.2 19.9 16.1 82 1.9 S 7 13 4 7 - - 0.0
19/10:00pm 19.2 19.5 16.1 82 1.9 S 9 17 5 9 - - 0.0
19/09:30pm 19.3 19.3 16.2 82 1.9 S 11 24 6 13 - - 0.0
19/09:00pm 19.4 19.5 16.4 83 1.8 S 11 24 6 13 - - 0.0
19/08:30pm 19.4 19.0 16.2 82 1.9 S 13 26 7 14 - - 0.0
19/08:00pm 19.4 19.5 16.4 83 1.8 S 11 22 6 12 - - 0.0
19/07:30pm 20.0 19.6 16.2 79 2.3 S 13 24 7 13 - - 0.0
19/07:00pm 20.6 20.3 16.4 77 2.5 S 13 35 7 19 - - 0.0
19/06:30pm 20.9 19.9 16.5 76 2.7 SSE 17 32 9 17 - - 0.0
19/06:00pm 21.6 20.3 16.8 74 2.9 SSE 19 35 10 19 - - 0.0
19/05:30pm 21.8 19.9 16.7 73 3.1 SSE 22 33 12 18 - - 0.0
19/05:00pm 22.2 20.0 16.9 72 3.3 SSE 24 39 13 21 - - 0.0
19/04:30pm 21.8 18.8 16.7 73 3.1 SSE 28 50 15 27 - - 0.0
19/04:00pm 21.5 18.6 17.1 76 2.7 SSE 28 50 15 27 - - 0.0
19/03:59pm 21.5 18.6 17.1 76 2.7 SSE 28 50 15 27 - - 0.0
19/03:30pm 20.5 17.9 16.9 80 2.2 SSE 26 43 14 23 - - 0.0
19/03:00pm 20.4 17.8 16.8 80 2.2 SSE 26 43 14 23 - - 0.0
19/02:31pm 19.9 17.2 17.5 86 1.5 SSE 28 52 15 28 - - 0.0
19/02:30pm 20.0 17.7 17.6 86 1.5 SSE 26 44 14 24 - - 0.0
19/02:14pm 20.6 17.4 16.4 77 2.5 SSE 28 50 15 27 - - 0.0
19/02:00pm 22.3 20.4 16.6 70 3.5 SSE 22 43 12 23 - - 0.0
19/01:31pm 23.8 20.8 16.8 65 4.3 SE 28 48 15 26 - - 0.0
19/01:30pm 23.9 21.3 16.9 65 4.3 SE 26 43 14 23 - - 0.0
19/01:00pm 25.1 23.2 17.6 63 4.7 SE 24 37 13 20 - - 0.0
19/12:30pm 25.9 25.4 17.8 61 5.1 SE 17 28 9 15 - - 0.0
19/12:00pm 25.2 23.6 17.4 62 4.9 SE 22 39 12 21 - - 0.0
19/11:30am 26.1 25.1 17.5 59 5.4 SSE 19 33 10 18 - - 0.0
19/11:00am 27.3 28.2 18.3 58 5.8 SSE 11 19 6 10 - - 0.0
19/10:30am 27.1 28.5 17.8 56 5.9 SSE 7 15 4 8 - - 0.0
19/10:00am 26.6 28.1 17.7 58 5.6 SSE 6 11 3 6 - - 0.0
19/09:30am 25.5 27.3 18.2 64 4.6 SSE 6 11 3 6 - - 0.0
19/09:00am 23.2 25.6 18.9 77 2.7 SSE 4 6 2 3 - - 0.0
19/08:30am 23.0 25.6 19.2 79 2.4 S 4 6 2 3 - - 0.0
19/08:00am 21.7 24.6 19.1 85 1.7 N 2 4 1 2 - - 0.0
19/07:30am 20.6 23.6 18.5 88 1.3 CALM 0 2 0 1 - - 0.0
19/07:00am 20.2 22.5 18.5 90 1.1 NE 4 4 2 2 - - 0.0
19/06:30am 20.2 23.1 18.3 89 1.2 CALM 0 0 0 0 - - 0.0
19/06:00am 20.6 23.2 18.4 87 1.4 ESE 2 4 1 2 - - 0.0
19/05:30am 20.9 23.4 18.1 84 1.7 SE 2 4 1 2 - - 0.0
19/05:00am 21.1 23.1 17.9 82 2.0 WNW 4 6 2 3 - - 0.0
19/04:30am 21.6 23.3 18.0 80 2.3 SE 6 9 3 5 - - 0.0
19/04:00am 22.1 24.8 17.7 76 2.7 CALM 0 4 0 2 - - 0.0
19/03:30am 22.7 22.4 17.4 72 3.3 ENE 15 24 8 13 - - 0.0
19/03:00am 23.8 25.1 16.1 62 4.7 SE 4 7 2 4 - - 0.0
19/02:30am 24.1 25.6 15.6 59 5.2 S 2 4 1 2 - - 0.0
19/02:00am 24.7 25.6 15.1 55 5.8 WSW 4 9 2 5 - - 0.0
19/01:30am 25.4 25.5 14.5 51 6.5 S 7 13 4 7 - - 0.0
19/01:00am 25.8 23.9 14.3 49 6.9 SE 17 28 9 15 - - 0.0
19/12:30am 25.4 25.0 14.2 50 6.7 S 9 17 5 9 - - 0.0
19/12:00am 25.5 23.9 14.0 49 6.8 SSE 15 24 8 13 - - 0.0
 
Date/Time
EDT
Temp
°C
App
Temp
°C
Dew
Point
°C
Rel
Hum
%
Delta-T
°C
Wind Press
QNH
hPa
Press
MSL
hPa
Rain since
9am
mm
Dir  Spd
km/h
Gust
km/h
Spd
kts
Gust
kts
18/11:30pm 24.3 24.4 13.8 52 6.2 S 6 9 3 5 - - 0.0
18/11:00pm 24.5 24.5 13.7 51 6.4 S 6 13 3 7 - - 0.0
18/10:30pm 24.1 23.7 14.2 54 5.9 SSW 9 15 5 8 - - 0.0
18/10:00pm 23.8 24.4 14.2 55 5.7 ESE 4 7 2 4 - - 0.0
18/09:30pm 24.4 24.8 14.8 55 5.8 ENE 6 11 3 6 - - 0.0
18/09:00pm 24.4 24.6 14.8 55 5.8 E 7 11 4 6 - - 0.0

Other formats

Comma delimited format used in spreadsheet applications
http://www.bom.gov.au/fwo/IDN60801/IDN60801.95684.axf

JavaScript Object Notation format (JSON) in row-major order
http://www.bom.gov.au/fwo/IDN60801/IDN60801.95684.json

Data quality

Most of these data are generated automatically and are frequently updated. Quality checks on data are not normally performed. It is possible for incorrect values to appear. Refer to information at About Latest Weather Observations and please check the disclaimer before using these data.